createdAt,value
2022-12-13T00:00:49.553Z,13.40
2022-12-13T00:03:17.157Z,14.10
2022-12-13T00:05:45.702Z,14.30
2022-12-13T00:08:13.453Z,13.38
2022-12-13T00:10:40.915Z,12.98
2022-12-13T00:13:08.363Z,13.25
2022-12-13T00:15:35.872Z,13.48
2022-12-13T00:18:03.262Z,13.13
2022-12-13T00:20:33.690Z,13.27
2022-12-13T00:23:01.185Z,12.85
2022-12-13T00:25:28.818Z,12.60
2022-12-13T00:27:56.419Z,13.07
2022-12-13T00:30:24.078Z,14.20
2022-12-13T00:32:51.596Z,12.93
2022-12-13T00:35:19.376Z,12.40
2022-12-13T00:37:47.126Z,13.07
2022-12-13T00:40:14.962Z,14.20
2022-12-13T00:42:42.505Z,13.20
2022-12-13T00:45:10.437Z,13.98
2022-12-13T00:47:38.175Z,12.43
2022-12-13T00:50:06.370Z,12.63
2022-12-13T00:52:36.875Z,12.18
2022-12-13T00:55:04.876Z,12.13
2022-12-13T00:57:33.774Z,12.20
2022-12-13T01:00:01.265Z,12.23
2022-12-13T01:02:29.012Z,12.30
2022-12-13T01:04:56.643Z,12.35
2022-12-13T01:07:24.154Z,10.98
2022-12-13T01:09:51.764Z,12.07
2022-12-13T01:12:19.201Z,11.60
2022-12-13T01:14:48.764Z,12.32
2022-12-13T01:17:18.071Z,11.68
2022-12-13T01:19:45.503Z,11.52
2022-12-13T01:22:13.056Z,12.15
2022-12-13T01:24:41.572Z,13.02
2022-12-13T01:27:09.130Z,11.23
2022-12-13T01:29:36.864Z,11.55
2022-12-13T01:32:04.417Z,12.60
2022-12-13T01:34:32.007Z,14.05
2022-12-13T01:36:59.868Z,14.73
2022-12-13T01:39:27.697Z,16.55
2022-12-13T01:42:03.797Z,13.32
2022-12-13T01:44:50.211Z,12.73
2022-12-13T01:47:20.823Z,13.05
2022-12-13T01:49:48.712Z,13.32
2022-12-13T01:52:16.284Z,11.30
2022-12-13T01:54:46.981Z,12.25
2022-12-13T01:57:16.235Z,11.45
2022-12-13T01:59:43.825Z,13.13
2022-12-13T02:02:13.012Z,13.60
2022-12-13T02:04:51.127Z,12.18
2022-12-13T02:07:23.244Z,12.82
2022-12-13T02:09:56.262Z,11.38
2022-12-13T02:12:24.365Z,9.18
2022-12-13T02:14:57.866Z,9.48
2022-12-13T02:17:34.404Z,12.70
2022-12-13T02:22:58.437Z,11.27
2022-12-13T02:25:28.389Z,12.35
2022-12-13T02:28:00.753Z,13.30
2022-12-13T02:30:43.026Z,13.13
2022-12-13T02:33:21.811Z,14.45
2022-12-13T02:35:56.277Z,13.02
2022-12-13T02:38:26.642Z,11.68
2022-12-13T02:41:01.564Z,12.23
2022-12-13T02:43:45.318Z,12.60
2022-12-13T02:46:14.077Z,11.77
2022-12-13T02:48:43.660Z,12.43
2022-12-13T02:51:12.634Z,13.02
2022-12-13T02:53:42.447Z,12.82
2022-12-13T02:56:09.996Z,11.85
2022-12-13T02:58:39.292Z,13.25
2022-12-13T03:01:29.208Z,13.38
2022-12-13T03:04:08.195Z,13.02
2022-12-13T03:06:39.045Z,12.30
2022-12-13T03:09:09.706Z,12.77
2022-12-13T03:12:14.695Z,13.15
2022-12-13T03:14:59.804Z,12.13
2022-12-13T03:17:27.962Z,12.25
2022-12-13T03:19:55.751Z,12.27
2022-12-13T03:22:23.453Z,12.30
2022-12-13T03:24:52.445Z,13.02
2022-12-13T03:27:19.943Z,11.82
2022-12-13T03:29:47.555Z,12.65
2022-12-13T03:32:15.039Z,11.30
2022-12-13T03:34:43.896Z,11.38
2022-12-13T03:37:12.474Z,11.07
2022-12-13T03:39:39.875Z,11.85
2022-12-13T03:42:07.592Z,11.68
2022-12-13T03:44:35.137Z,11.68
2022-12-13T03:47:02.552Z,11.43
2022-12-13T03:49:35.217Z,11.63
2022-12-13T03:52:03.401Z,12.40
2022-12-13T03:54:30.954Z,12.35
2022-12-13T03:56:58.486Z,13.15
2022-12-13T03:59:25.905Z,11.48
2022-12-13T04:01:53.479Z,11.15
2022-12-13T04:04:20.865Z,11.57
2022-12-13T04:06:48.379Z,12.05
2022-12-13T04:09:15.902Z,11.70
2022-12-13T04:12:01.925Z,11.93
2022-12-13T04:14:29.641Z,10.68
2022-12-13T04:16:57.221Z,11.48
2022-12-13T04:19:24.723Z,12.13
2022-12-13T04:21:55.244Z,11.65
2022-12-13T04:24:31.888Z,11.82
2022-12-13T04:27:00.571Z,12.82
2022-12-13T04:29:33.858Z,11.85
2022-12-13T04:32:02.674Z,11.77
2022-12-13T04:34:36.535Z,11.93
2022-12-13T04:37:05.221Z,12.13
2022-12-13T04:39:34.469Z,11.60
2022-12-13T04:42:02.403Z,11.73
2022-12-13T04:44:33.750Z,12.45
2022-12-13T04:47:04.422Z,10.23
2022-12-13T04:49:31.911Z,13.23
2022-12-13T04:52:01.712Z,12.20
2022-12-13T04:54:35.671Z,12.32
2022-12-13T04:57:06.863Z,11.80
2022-12-13T04:59:34.253Z,13.00
2022-12-13T05:02:01.720Z,12.80
2022-12-13T05:04:32.923Z,12.30
2022-12-13T05:07:01.150Z,12.25
2022-12-13T05:09:28.562Z,11.82
2022-12-13T05:12:01.517Z,13.77
2022-12-13T05:14:29.940Z,13.73
2022-12-13T05:16:57.591Z,12.13
2022-12-13T05:19:31.601Z,11.48
2022-12-13T05:22:02.065Z,13.43
2022-12-13T05:24:30.391Z,12.63
2022-12-13T05:26:58.957Z,12.65
2022-12-13T05:29:28.070Z,12.95
2022-12-13T05:31:55.773Z,13.48
2022-12-13T05:34:23.303Z,14.15
2022-12-13T05:36:51.161Z,14.18
2022-12-13T05:39:27.737Z,12.68
2022-12-13T05:42:01.578Z,11.93
2022-12-13T05:44:30.921Z,11.57
2022-12-13T05:46:58.273Z,13.02
2022-12-13T05:49:29.704Z,12.63
2022-12-13T05:51:57.111Z,12.60
2022-12-13T05:54:25.959Z,12.77
2022-12-13T05:56:53.543Z,12.85
2022-12-13T05:59:21.556Z,12.15
2022-12-13T06:01:49.072Z,13.32
2022-12-13T06:04:22.627Z,12.60
2022-12-13T06:06:51.148Z,12.35
2022-12-13T06:09:19.364Z,12.50
2022-12-13T06:11:47.154Z,13.25
2022-12-13T06:14:22.198Z,13.15
2022-12-13T06:16:51.784Z,12.82
2022-12-13T06:19:19.697Z,13.90
2022-12-13T06:21:47.297Z,14.50
2022-12-13T06:24:15.764Z,15.02
2022-12-13T06:26:45.374Z,16.65
2022-12-13T06:29:24.377Z,15.90
2022-12-13T06:31:54.080Z,15.05
2022-12-13T06:34:21.723Z,14.82
2022-12-13T06:36:49.495Z,13.40
2022-12-13T06:39:17.063Z,15.10
2022-12-13T06:41:45.045Z,14.85
2022-12-13T06:44:13.273Z,15.13
2022-12-13T06:46:41.139Z,16.60
2022-12-13T06:49:08.881Z,17.88
2022-12-13T06:51:36.513Z,16.75
2022-12-13T06:54:05.043Z,16.65
2022-12-13T06:56:32.995Z,15.23
2022-12-13T06:59:02.034Z,16.38
2022-12-13T07:01:37.639Z,17.20
2022-12-13T07:04:29.704Z,16.30
2022-12-13T07:06:54.157Z,17.02
2022-12-13T07:09:21.802Z,17.63
2022-12-13T07:11:52.344Z,16.65
2022-12-13T07:14:20.107Z,15.82
2022-12-13T07:16:47.541Z,17.58
2022-12-13T07:19:24.194Z,17.52
2022-12-13T07:21:52.982Z,18.05
2022-12-13T07:24:20.542Z,17.17
2022-12-13T07:26:48.142Z,16.52
2022-12-13T07:29:22.695Z,15.50
2022-12-13T07:31:50.610Z,17.90
2022-12-13T07:34:18.614Z,16.23
2022-12-13T07:36:46.101Z,15.73
2022-12-13T07:39:13.704Z,17.52
2022-12-13T07:41:41.049Z,14.77
2022-12-13T07:44:08.604Z,16.17
2022-12-13T07:46:36.007Z,16.33
2022-12-13T07:49:04.267Z,15.27
2022-12-13T07:51:34.170Z,15.80
2022-12-13T07:54:06.277Z,16.60
2022-12-13T07:56:34.302Z,17.20
2022-12-13T07:59:01.817Z,14.48
2022-12-13T08:01:29.415Z,16.15
2022-12-13T08:03:57.933Z,17.73
2022-12-13T08:06:27.713Z,16.60
2022-12-13T08:08:58.525Z,17.75
2022-12-13T08:11:26.390Z,17.23
2022-12-13T08:13:56.665Z,18.75
2022-12-13T08:16:27.260Z,21.60
2022-12-13T08:19:01.118Z,21.38
2022-12-13T08:21:54.127Z,23.02
2022-12-13T08:24:22.357Z,21.60
2022-12-13T08:26:49.809Z,21.10
2022-12-13T08:29:22.926Z,18.45
2022-12-13T08:34:28.961Z,18.58
2022-12-13T08:37:02.001Z,16.80
2022-12-13T08:39:30.682Z,17.55
2022-12-13T08:42:15.200Z,16.17
2022-12-13T08:44:45.460Z,20.38
2022-12-13T08:47:22.942Z,19.33
2022-12-13T08:49:53.622Z,18.75
2022-12-13T08:52:22.097Z,18.33
2022-12-13T08:54:49.485Z,16.98
2022-12-13T08:57:17.060Z,20.30
2022-12-13T08:59:44.981Z,17.92
2022-12-13T09:02:14.385Z,23.20
2022-12-13T09:04:42.055Z,18.00
2022-12-13T09:07:09.520Z,17.25
2022-12-13T09:09:37.444Z,16.25
2022-12-13T09:12:10.465Z,16.17
2022-12-13T09:14:45.398Z,15.98
2022-12-13T09:17:14.797Z,15.88
2022-12-13T09:19:51.965Z,16.10
2022-12-13T09:22:33.924Z,14.70
2022-12-13T09:25:03.021Z,15.93
2022-12-13T09:27:39.558Z,16.17
2022-12-13T09:30:08.439Z,15.45
2022-12-13T09:32:35.985Z,13.23
2022-12-13T09:35:03.516Z,14.20
2022-12-13T09:37:30.935Z,15.07
2022-12-13T09:39:58.770Z,15.07
2022-12-13T09:42:46.870Z,13.50
2022-12-13T09:45:22.811Z,12.88
2022-12-13T09:48:01.361Z,13.98
2022-12-13T09:50:37.803Z,14.30
2022-12-13T09:53:21.125Z,13.82
2022-12-13T09:55:50.466Z,14.05
2022-12-13T09:58:33.421Z,14.35
2022-12-13T10:01:00.995Z,14.95
2022-12-13T10:03:28.981Z,14.98
2022-12-13T10:06:00.597Z,15.27
2022-12-13T10:08:38.424Z,14.82
2022-12-13T10:11:05.998Z,15.18
2022-12-13T10:13:43.039Z,14.60
2022-12-13T10:16:14.267Z,13.05
2022-12-13T10:18:50.960Z,13.07
2022-12-13T10:21:21.585Z,14.35
2022-12-13T10:26:38.313Z,13.60
2022-12-13T10:29:06.746Z,11.18
2022-12-13T10:31:48.202Z,12.60
2022-12-13T10:34:26.609Z,12.15
2022-12-13T10:36:54.590Z,12.27
2022-12-13T10:39:43.695Z,12.02
2022-12-13T10:42:22.899Z,12.82
2022-12-13T10:45:10.742Z,10.25
2022-12-13T10:47:38.254Z,7.80
2022-12-13T10:50:06.120Z,9.85
2022-12-13T10:52:43.454Z,9.82
2022-12-13T10:55:29.245Z,9.63
2022-12-13T10:57:58.750Z,10.52
2022-12-13T11:00:35.784Z,10.73
2022-12-13T11:03:03.352Z,10.57
2022-12-13T11:05:36.277Z,10.48
2022-12-13T11:08:13.772Z,11.27
2022-12-13T11:10:41.280Z,10.82
2022-12-13T11:13:09.583Z,10.00
2022-12-13T11:15:39.410Z,9.68
2022-12-13T11:18:09.206Z,10.45
2022-12-13T11:20:52.783Z,10.43
2022-12-13T11:23:34.081Z,9.20
2022-12-13T11:26:03.674Z,11.30
2022-12-13T11:28:40.055Z,10.13
2022-12-13T11:31:12.478Z,9.25
2022-12-13T11:33:47.729Z,10.65
2022-12-13T11:36:16.080Z,9.63
2022-12-13T11:38:44.954Z,9.57
2022-12-13T11:41:31.473Z,10.00
2022-12-13T11:44:03.641Z,7.68
2022-12-13T11:46:42.792Z,9.18
2022-12-13T11:49:13.035Z,9.52
2022-12-13T11:51:47.042Z,9.82
2022-12-13T11:54:23.645Z,9.45
2022-12-13T11:57:00.130Z,10.45
2022-12-13T11:59:39.633Z,10.57
2022-12-13T12:02:21.944Z,10.15
2022-12-13T12:04:58.092Z,11.38
2022-12-13T12:07:35.003Z,9.98
2022-12-13T12:10:12.363Z,10.75
2022-12-13T12:12:41.619Z,9.30
2022-12-13T12:15:15.706Z,10.32
2022-12-13T12:17:44.623Z,10.60
2022-12-13T12:20:23.278Z,11.57
2022-12-13T12:22:52.226Z,9.70
2022-12-13T12:25:23.018Z,17.05
2022-12-13T12:27:53.555Z,12.30
2022-12-13T12:30:32.275Z,13.82
2022-12-13T12:33:07.945Z,14.48
2022-12-13T12:35:52.935Z,10.55
2022-12-13T12:38:39.291Z,9.18
2022-12-13T12:41:16.180Z,11.52
2022-12-13T12:43:44.998Z,9.30
2022-12-13T12:46:12.884Z,9.45
2022-12-13T12:49:00.369Z,10.90
2022-12-13T12:51:35.755Z,10.73
2022-12-13T12:54:26.135Z,10.55
2022-12-13T12:57:11.197Z,12.10
2022-12-13T12:59:46.569Z,11.20
2022-12-13T13:02:14.304Z,11.20
2022-12-13T13:04:46.215Z,9.32
2022-12-13T13:07:40.355Z,10.18
2022-12-13T13:10:16.729Z,11.00
2022-12-13T13:13:12.220Z,8.65
2022-12-13T13:15:41.031Z,8.40
2022-12-13T13:18:28.775Z,9.98
2022-12-13T13:21:16.665Z,10.15
2022-12-13T13:23:44.427Z,8.85
2022-12-13T13:26:32.717Z,9.80
2022-12-13T13:29:17.942Z,8.50
2022-12-13T13:32:01.981Z,9.32
2022-12-13T13:34:31.331Z,9.60
2022-12-13T13:36:59.925Z,8.52
2022-12-13T13:39:30.651Z,9.68
2022-12-13T13:42:17.637Z,9.80
2022-12-13T13:44:57.535Z,8.63
2022-12-13T13:47:25.086Z,8.48
2022-12-13T13:50:17.875Z,8.82
2022-12-13T13:52:45.435Z,12.80
2022-12-13T13:55:13.193Z,9.52
2022-12-13T13:58:09.259Z,8.60
2022-12-13T14:00:57.053Z,10.70
2022-12-13T14:03:34.109Z,9.15
2022-12-13T14:06:24.741Z,9.45
2022-12-13T14:09:11.027Z,10.07
2022-12-13T14:11:41.783Z,9.23
2022-12-13T14:14:28.356Z,10.25
2022-12-13T14:17:14.432Z,11.00
2022-12-13T14:19:57.607Z,10.27
2022-12-13T14:22:44.305Z,12.05
2022-12-13T14:25:30.654Z,13.35
2022-12-13T14:28:04.423Z,11.73
2022-12-13T14:30:32.597Z,11.88
2022-12-13T14:33:00.155Z,9.52
2022-12-13T14:35:27.710Z,9.48
2022-12-13T14:38:00.184Z,10.60
2022-12-13T14:40:27.886Z,9.82
2022-12-13T14:42:55.664Z,9.57
2022-12-13T14:45:26.430Z,10.18
2022-12-13T14:47:55.313Z,14.45
2022-12-13T14:50:23.462Z,12.70
2022-12-13T14:52:51.157Z,12.23
2022-12-13T14:55:32.854Z,12.43
2022-12-13T14:58:01.841Z,12.98
2022-12-13T15:00:34.211Z,14.13
2022-12-13T15:03:03.460Z,13.32
2022-12-13T15:05:48.792Z,13.48
2022-12-13T15:08:21.772Z,12.73
2022-12-13T15:10:54.285Z,14.02
2022-12-13T15:13:38.224Z,10.63
2022-12-13T15:18:37.943Z,11.77
2022-12-13T15:21:23.631Z,10.35
2022-12-13T15:23:52.436Z,11.25
2022-12-13T15:26:27.942Z,8.90
2022-12-13T15:29:09.884Z,9.18
2022-12-13T15:31:38.717Z,9.93
2022-12-13T15:34:35.807Z,8.80
2022-12-13T15:37:05.830Z,9.27
2022-12-13T15:39:37.906Z,9.05
2022-12-13T15:42:05.584Z,10.15
2022-12-13T15:44:48.077Z,9.07
2022-12-13T15:47:28.600Z,8.73
2022-12-13T15:49:58.461Z,8.50
2022-12-13T15:52:32.542Z,10.10
2022-12-13T15:55:00.708Z,9.95
2022-12-13T15:57:30.226Z,10.32
2022-12-13T16:00:17.576Z,11.10
2022-12-13T16:02:52.124Z,10.45
2022-12-13T16:06:06.737Z,12.00
2022-12-13T16:08:36.711Z,9.95
2022-12-13T16:11:04.535Z,9.60
2022-12-13T16:13:37.301Z,9.45
2022-12-13T16:16:10.951Z,9.45
2022-12-13T16:19:03.203Z,9.80
2022-12-13T16:21:30.785Z,10.52
2022-12-13T16:23:58.263Z,21.38
2022-12-13T16:26:27.188Z,20.55
2022-12-13T16:28:56.193Z,12.63
2022-12-13T16:31:25.408Z,10.40
2022-12-13T16:33:52.982Z,10.20
2022-12-13T16:36:20.632Z,9.90
2022-12-13T16:38:49.311Z,9.95
2022-12-13T16:41:16.896Z,9.55
2022-12-13T16:43:53.406Z,8.60
2022-12-13T16:47:17.900Z,10.02
2022-12-13T16:49:28.563Z,9.57
2022-12-13T16:51:56.501Z,10.38
2022-12-13T16:54:24.812Z,8.82
2022-12-13T16:56:53.513Z,10.35
2022-12-13T16:59:23.380Z,9.93
2022-12-13T17:01:54.967Z,8.15
2022-12-13T17:04:23.493Z,8.85
2022-12-13T17:06:54.985Z,8.27
2022-12-13T17:09:23.713Z,9.15
2022-12-13T17:11:51.685Z,10.52
2022-12-13T17:14:19.510Z,7.80
2022-12-13T17:16:47.822Z,8.32
2022-12-13T17:19:15.935Z,9.27
2022-12-13T17:21:43.773Z,11.90
2022-12-13T17:24:11.636Z,9.32
2022-12-13T17:26:39.473Z,18.45
2022-12-13T17:29:07.313Z,20.52
2022-12-13T17:31:36.243Z,9.63
2022-12-13T17:34:04.524Z,10.15
2022-12-13T17:36:32.361Z,8.70
2022-12-13T17:39:00.287Z,8.93
2022-12-13T17:41:28.137Z,9.35
2022-12-13T17:44:00.398Z,9.57
2022-12-13T17:46:28.059Z,9.43
2022-12-13T17:48:55.727Z,9.23
2022-12-13T17:51:26.325Z,8.57
2022-12-13T17:53:54.574Z,9.57
2022-12-13T17:56:22.600Z,9.05
2022-12-13T17:58:50.250Z,7.70
2022-12-13T18:01:17.881Z,9.30
2022-12-13T18:03:45.583Z,9.27
2022-12-13T18:06:13.473Z,10.20
2022-12-13T18:08:42.869Z,10.88
2022-12-13T18:14:00.963Z,10.68
2022-12-13T18:16:35.922Z,9.80
2022-12-13T18:19:09.018Z,9.98
2022-12-13T18:21:40.251Z,9.07
2022-12-13T18:24:09.061Z,9.25
2022-12-13T18:26:37.023Z,9.05
2022-12-13T18:29:05.244Z,10.98
2022-12-13T18:31:33.192Z,11.85
2022-12-13T18:34:00.870Z,19.55
2022-12-13T18:36:28.867Z,11.93
2022-12-13T18:38:57.233Z,10.85
2022-12-13T18:41:29.943Z,10.38
2022-12-13T18:43:59.200Z,10.40
2022-12-13T18:46:30.586Z,9.38
2022-12-13T18:49:00.082Z,10.32
2022-12-13T18:51:29.108Z,10.73
2022-12-13T18:53:57.141Z,9.90
2022-12-13T18:56:25.902Z,10.05
2022-12-13T18:58:54.335Z,9.75
2022-12-13T19:01:23.930Z,9.40
2022-12-13T19:03:52.574Z,10.20
2022-12-13T19:06:22.330Z,10.43
2022-12-13T19:08:50.775Z,9.98
2022-12-13T19:11:19.865Z,8.48
2022-12-13T19:13:47.600Z,10.50
2022-12-13T19:16:16.406Z,9.07
2022-12-13T19:18:44.051Z,9.63
2022-12-13T19:21:14.178Z,9.82
2022-12-13T19:23:47.317Z,10.32
2022-12-13T19:26:19.142Z,10.00
2022-12-13T19:28:46.991Z,9.90
2022-12-13T19:31:15.864Z,9.25
2022-12-13T19:33:44.281Z,10.57
2022-12-13T19:36:12.423Z,8.73
2022-12-13T19:38:41.981Z,9.88
2022-12-13T19:41:16.022Z,9.32
2022-12-13T19:43:50.672Z,8.85
2022-12-13T19:46:23.556Z,9.77
2022-12-13T19:48:53.457Z,10.38
2022-12-13T19:51:21.774Z,9.23
2022-12-13T19:53:50.083Z,9.45
2022-12-13T19:56:21.040Z,9.18
2022-12-13T19:58:54.850Z,13.73
2022-12-13T20:03:50.303Z,10.13
2022-12-13T20:06:19.627Z,10.05
2022-12-13T20:08:47.649Z,10.02
2022-12-13T20:11:19.561Z,11.70
2022-12-13T20:13:47.993Z,11.68
2022-12-13T20:16:17.104Z,11.90
2022-12-13T20:18:45.045Z,10.45
2022-12-13T20:21:15.286Z,11.25
2022-12-13T20:23:48.631Z,11.18
2022-12-13T20:26:18.826Z,11.40
2022-12-13T20:28:46.635Z,10.68
2022-12-13T20:31:16.963Z,10.93
2022-12-13T20:33:46.941Z,11.07
2022-12-13T20:36:24.676Z,10.82
2022-12-13T20:38:53.990Z,11.93
2022-12-13T20:41:21.943Z,11.88
2022-12-13T20:43:51.994Z,10.68
2022-12-13T20:46:20.684Z,10.48
2022-12-13T20:48:48.756Z,11.65
2022-12-13T20:51:17.713Z,11.77
2022-12-13T20:53:47.098Z,10.70
2022-12-13T20:56:19.771Z,12.70
2022-12-13T20:58:47.663Z,11.60
2022-12-13T21:01:19.914Z,11.00
2022-12-13T21:03:47.657Z,9.85
2022-12-13T21:06:15.419Z,12.52
2022-12-13T21:08:52.747Z,10.77
2022-12-13T21:11:24.910Z,11.30
2022-12-13T21:13:52.532Z,12.65
2022-12-13T21:16:20.608Z,13.98
2022-12-13T21:18:48.433Z,14.63
2022-12-13T21:21:16.313Z,11.48
2022-12-13T21:23:43.850Z,11.52
2022-12-13T21:26:11.504Z,13.68
2022-12-13T21:28:39.023Z,11.82
2022-12-13T21:31:08.575Z,12.02
2022-12-13T21:33:36.704Z,12.18
2022-12-13T21:36:14.857Z,12.90
2022-12-13T21:38:43.222Z,12.68
2022-12-13T21:41:11.405Z,12.30
2022-12-13T21:43:39.641Z,13.68
2022-12-13T21:46:14.353Z,12.70
2022-12-13T21:48:42.894Z,14.95
2022-12-13T21:51:12.783Z,12.27
2022-12-13T21:53:40.745Z,11.45
2022-12-13T21:56:27.831Z,13.52
2022-12-13T21:59:14.504Z,14.07
2022-12-13T22:02:05.070Z,12.55
2022-12-13T22:04:32.587Z,12.70
2022-12-13T22:07:00.535Z,11.95
2022-12-13T22:09:28.602Z,12.77
2022-12-13T22:11:56.164Z,12.77
2022-12-13T22:14:23.820Z,14.73
2022-12-13T22:16:51.464Z,14.20
2022-12-13T22:19:19.315Z,13.63
2022-12-13T22:21:46.863Z,13.73
2022-12-13T22:24:14.591Z,13.15
2022-12-13T22:26:42.313Z,13.15
2022-12-13T22:29:11.910Z,13.85
2022-12-13T22:31:39.826Z,14.27
2022-12-13T22:34:07.783Z,12.55
2022-12-13T22:36:35.610Z,13.13
2022-12-13T22:39:03.475Z,12.85
2022-12-13T22:41:31.273Z,12.00
2022-12-13T22:43:59.358Z,12.30
2022-12-13T22:46:27.823Z,13.52
2022-12-13T22:48:55.320Z,12.82
2022-12-13T22:51:22.824Z,12.48
2022-12-13T22:53:50.254Z,12.80
2022-12-13T22:56:19.489Z,12.30
2022-12-13T22:58:47.330Z,13.10
2022-12-13T23:01:16.590Z,12.98
2022-12-13T23:03:44.523Z,12.27
2022-12-13T23:06:13.640Z,12.63
2022-12-13T23:08:43.525Z,12.00
2022-12-13T23:11:30.593Z,12.75
2022-12-13T23:13:58.793Z,12.00
2022-12-13T23:16:27.696Z,12.48
2022-12-13T23:19:16.869Z,12.90
2022-12-13T23:21:43.864Z,13.35
2022-12-13T23:24:16.365Z,11.63
2022-12-13T23:26:44.103Z,13.23
2022-12-13T23:29:11.953Z,12.63
2022-12-13T23:31:43.340Z,13.68
2022-12-13T23:34:16.430Z,11.82
2022-12-13T23:36:44.014Z,12.65
2022-12-13T23:39:12.162Z,12.38
2022-12-13T23:41:39.781Z,12.35
2022-12-13T23:44:07.489Z,11.35
2022-12-13T23:46:36.049Z,12.60
2022-12-13T23:49:05.180Z,11.73
2022-12-13T23:51:33.282Z,11.32
2022-12-13T23:54:00.865Z,11.82
2022-12-13T23:56:28.653Z,12.05
2022-12-13T23:58:56.205Z,11.52
